<?xml version="1.0" encoding="UTF-8" standalone="no" ?>
<gpx xmlns="http://www.topografix.com/GPX/1/1" xmlns:xsi="http://www.w3.org/2001/XMLSchema-instance" xsi:schemaLocation="http://www.topografix.com/GPX/1/1 http://www.topografix.com/GPX/1/1/gpx.xsd" version="1.1" creator="VisuGPX - https://www.visugpx.com">
  <metadata>
    <name>petite balade de santé du dimanche 5 juin 2016</name>
    <desc><![CDATA[petite balade de santé du dimanche 5 juin 2016]]></desc>
  </metadata>
  <trk>
    <name><![CDATA[Sequence 1]]></name>
    <trkseg>
      <trkpt lat="48.18058" lon="-3.01022">
        <ele>80</ele>
        <time>2016-06-05T06:56:54Z</time>
      </trkpt>
      <trkpt lat="48.18062" lon="-3.01025">
        <ele>80</ele>
        <time>2016-06-05T06:56:57Z</time>
      </trkpt>
      <trkpt lat="48.18066" lon="-3.01024">
        <ele>79</ele>
        <time>2016-06-05T06:57:08Z</time>
      </trkpt>
      <trkpt lat="48.18065" lon="-3.01022">
        <ele>83</ele>
        <time>2016-06-05T06:57:23Z</time>
      </trkpt>
      <trkpt lat="48.18065" lon="-3.01022">
        <ele>85</ele>
        <time>2016-06-05T06:57:39Z</time>
      </trkpt>
      <trkpt lat="48.18065" lon="-3.01022">
        <ele>85</ele>
        <time>2016-06-05T06:57:41Z</time>
      </trkpt>
      <trkpt lat="48.18067" lon="-3.01019">
        <ele>84</ele>
        <time>2016-06-05T06:57:53Z</time>
      </trkpt>
      <trkpt lat="48.18077" lon="-3.01024">
        <ele>87</ele>
        <time>2016-06-05T06:58:03Z</time>
      </trkpt>
      <trkpt lat="48.18085" lon="-3.01027">
        <ele>87</ele>
        <time>2016-06-05T06:58:19Z</time>
      </trkpt>
      <trkpt lat="48.18085" lon="-3.01028">
        <ele>87</ele>
        <time>2016-06-05T06:58:25Z</time>
      </trkpt>
      <trkpt lat="48.18095" lon="-3.01036">
        <ele>86</ele>
        <time>2016-06-05T06:58:37Z</time>
      </trkpt>
      <trkpt lat="48.18098" lon="-3.01035">
        <ele>83</ele>
        <time>2016-06-05T06:58:47Z</time>
      </trkpt>
      <trkpt lat="48.18101" lon="-3.01034">
        <ele>84</ele>
        <time>2016-06-05T06:58:58Z</time>
      </trkpt>
      <trkpt lat="48.18114" lon="-3.0104">
        <ele>89</ele>
        <time>2016-06-05T06:59:09Z</time>
      </trkpt>
      <trkpt lat="48.18129" lon="-3.01048">
        <ele>82</ele>
        <time>2016-06-05T06:59:26Z</time>
      </trkpt>
      <trkpt lat="48.18139" lon="-3.01049">
        <ele>85</ele>
        <time>2016-06-05T06:59:35Z</time>
      </trkpt>
      <trkpt lat="48.18146" lon="-3.01049">
        <ele>89</ele>
        <time>2016-06-05T06:59:42Z</time>
      </trkpt>
      <trkpt lat="48.18158" lon="-3.01054">
        <ele>92</ele>
        <time>2016-06-05T06:59:53Z</time>
      </trkpt>
      <trkpt lat="48.18172" lon="-3.01054">
        <ele>84</ele>
        <time>2016-06-05T07:00:04Z</time>
      </trkpt>
      <trkpt lat="48.18184" lon="-3.01055">
        <ele>84</ele>
        <time>2016-06-05T07:00:15Z</time>
      </trkpt>
      <trkpt lat="48.18194" lon="-3.01058">
        <ele>84</ele>
        <time>2016-06-05T07:00:36Z</time>
      </trkpt>
      <trkpt lat="48.18194" lon="-3.01058">
        <ele>86</ele>
        <time>2016-06-05T07:00:40Z</time>
      </trkpt>
      <trkpt lat="48.18195" lon="-3.01058">
        <ele>87</ele>
        <time>2016-06-05T07:00:48Z</time>
      </trkpt>
      <trkpt lat="48.18204" lon="-3.01057">
        <ele>93</ele>
        <time>2016-06-05T07:00:59Z</time>
      </trkpt>
      <trkpt lat="48.18219" lon="-3.01056">
        <ele>88</ele>
        <time>2016-06-05T07:01:10Z</time>
      </trkpt>
      <trkpt lat="48.1823" lon="-3.01055">
        <ele>94</ele>
        <time>2016-06-05T07:01:21Z</time>
      </trkpt>
      <trkpt lat="48.18232" lon="-3.01055">
        <ele>94</ele>
        <time>2016-06-05T07:01:35Z</time>
      </trkpt>
      <trkpt lat="48.18235" lon="-3.01053">
        <ele>88</ele>
        <time>2016-06-05T07:01:45Z</time>
      </trkpt>
      <trkpt lat="48.1824" lon="-3.01054">
        <ele>89</ele>
        <time>2016-06-05T07:01:56Z</time>
      </trkpt>
      <trkpt lat="48.18249" lon="-3.01056">
        <ele>88</ele>
        <time>2016-06-05T07:02:05Z</time>
      </trkpt>
      <trkpt lat="48.18261" lon="-3.01058">
        <ele>87</ele>
        <time>2016-06-05T07:02:16Z</time>
      </trkpt>
      <trkpt lat="48.18277" lon="-3.01058">
        <ele>86</ele>
        <time>2016-06-05T07:02:29Z</time>
      </trkpt>
      <trkpt lat="48.18292" lon="-3.01057">
        <ele>88</ele>
        <time>2016-06-05T07:02:39Z</time>
      </trkpt>
      <trkpt lat="48.18301" lon="-3.01057">
        <ele>83</ele>
        <time>2016-06-05T07:02:49Z</time>
      </trkpt>
      <trkpt lat="48.18316" lon="-3.01056">
        <ele>84</ele>
        <time>2016-06-05T07:03:00Z</time>
      </trkpt>
      <trkpt lat="48.18331" lon="-3.01055">
        <ele>84</ele>
        <time>2016-06-05T07:03:14Z</time>
      </trkpt>
      <trkpt lat="48.18346" lon="-3.01062">
        <ele>84</ele>
        <time>2016-06-05T07:03:26Z</time>
      </trkpt>
      <trkpt lat="48.1836" lon="-3.01064">
        <ele>83</ele>
        <time>2016-06-05T07:03:41Z</time>
      </trkpt>
      <trkpt lat="48.18365" lon="-3.01064">
        <ele>84</ele>
        <time>2016-06-05T07:03:45Z</time>
      </trkpt>
      <trkpt lat="48.18382" lon="-3.01073">
        <ele>88</ele>
        <time>2016-06-05T07:04:02Z</time>
      </trkpt>
      <trkpt lat="48.18386" lon="-3.01074">
        <ele>89</ele>
        <time>2016-06-05T07:04:06Z</time>
      </trkpt>
      <trkpt lat="48.18398" lon="-3.01082">
        <ele>87</ele>
        <time>2016-06-05T07:04:17Z</time>
      </trkpt>
      <trkpt lat="48.18409" lon="-3.01087">
        <ele>83</ele>
        <time>2016-06-05T07:04:28Z</time>
      </trkpt>
      <trkpt lat="48.18427" lon="-3.01097">
        <ele>86</ele>
        <time>2016-06-05T07:04:47Z</time>
      </trkpt>
      <trkpt lat="48.18432" lon="-3.01098">
        <ele>87</ele>
        <time>2016-06-05T07:04:51Z</time>
      </trkpt>
      <trkpt lat="48.18442" lon="-3.01107">
        <ele>87</ele>
        <time>2016-06-05T07:05:02Z</time>
      </trkpt>
      <trkpt lat="48.18454" lon="-3.01112">
        <ele>86</ele>
        <time>2016-06-05T07:05:12Z</time>
      </trkpt>
      <trkpt lat="48.18466" lon="-3.0112">
        <ele>83</ele>
        <time>2016-06-05T07:05:23Z</time>
      </trkpt>
      <trkpt lat="48.18484" lon="-3.01133">
        <ele>83</ele>
        <time>2016-06-05T07:05:41Z</time>
      </trkpt>
      <trkpt lat="48.18495" lon="-3.01146">
        <ele>85</ele>
        <time>2016-06-05T07:05:52Z</time>
      </trkpt>
      <trkpt lat="48.18498" lon="-3.01149">
        <ele>86</ele>
        <time>2016-06-05T07:05:56Z</time>
      </trkpt>
      <trkpt lat="48.18511" lon="-3.01153">
        <ele>89</ele>
        <time>2016-06-05T07:06:07Z</time>
      </trkpt>
      <trkpt lat="48.18522" lon="-3.01158">
        <ele>85</ele>
        <time>2016-06-05T07:06:18Z</time>
      </trkpt>
      <trkpt lat="48.1854" lon="-3.0117">
        <ele>84</ele>
        <time>2016-06-05T07:06:36Z</time>
      </trkpt>
      <trkpt lat="48.18545" lon="-3.01173">
        <ele>84</ele>
        <time>2016-06-05T07:06:43Z</time>
      </trkpt>
      <trkpt lat="48.18551" lon="-3.01179">
        <ele>83</ele>
        <time>2016-06-05T07:06:57Z</time>
      </trkpt>
      <trkpt lat="48.18552" lon="-3.0118">
        <ele>82</ele>
        <time>2016-06-05T07:07:02Z</time>
      </trkpt>
      <trkpt lat="48.18564" lon="-3.01184">
        <ele>81</ele>
        <time>2016-06-05T07:07:18Z</time>
      </trkpt>
      <trkpt lat="48.18568" lon="-3.01184">
        <ele>78</ele>
        <time>2016-06-05T07:07:27Z</time>
      </trkpt>
      <trkpt lat="48.18569" lon="-3.01187">
        <ele>78</ele>
        <time>2016-06-05T07:07:35Z</time>
      </trkpt>
      <trkpt lat="48.18574" lon="-3.01187">
        <ele>79</ele>
        <time>2016-06-05T07:07:52Z</time>
      </trkpt>
      <trkpt lat="48.18574" lon="-3.01187">
        <ele>79</ele>
        <time>2016-06-05T07:07:57Z</time>
      </trkpt>
      <trkpt lat="48.18574" lon="-3.01184">
        <ele>79</ele>
        <time>2016-06-05T07:08:08Z</time>
      </trkpt>
      <trkpt lat="48.18573" lon="-3.01184">
        <ele>79</ele>
        <time>2016-06-05T07:08:19Z</time>
      </trkpt>
      <trkpt lat="48.18574" lon="-3.01182">
        <ele>78</ele>
        <time>2016-06-05T07:08:30Z</time>
      </trkpt>
      <trkpt lat="48.18575" lon="-3.01182">
        <ele>78</ele>
        <time>2016-06-05T07:08:50Z</time>
      </trkpt>
      <trkpt lat="48.18575" lon="-3.01182">
        <ele>78</ele>
        <time>2016-06-05T07:08:52Z</time>
      </trkpt>
      <trkpt lat="48.18575" lon="-3.01182">
        <ele>78</ele>
        <time>2016-06-05T07:09:06Z</time>
      </trkpt>
      <trkpt lat="48.18575" lon="-3.01182">
        <ele>78</ele>
        <time>2016-06-05T07:09:14Z</time>
      </trkpt>
      <trkpt lat="48.18575" lon="-3.01182">
        <ele>78</ele>
        <time>2016-06-05T07:09:25Z</time>
      </trkpt>
      <trkpt lat="48.18574" lon="-3.01187">
        <ele>80</ele>
        <time>2016-06-05T07:09:40Z</time>
      </trkpt>
      <trkpt lat="48.18562" lon="-3.01181">
        <ele>83</ele>
        <time>2016-06-05T07:09:54Z</time>
      </trkpt>
      <trkpt lat="48.1856" lon="-3.01179">
        <ele>83</ele>
        <time>2016-06-05T07:09:58Z</time>
      </trkpt>
      <trkpt lat="48.18559" lon="-3.01184">
        <ele>84</ele>
        <time>2016-06-05T07:10:14Z</time>
      </trkpt>
      <trkpt lat="48.18552" lon="-3.01177">
        <ele>83</ele>
        <time>2016-06-05T07:10:20Z</time>
      </trkpt>
      <trkpt lat="48.18531" lon="-3.01168">
        <ele>86</ele>
        <time>2016-06-05T07:10:40Z</time>
      </trkpt>
      <trkpt lat="48.18519" lon="-3.01162">
        <ele>86</ele>
        <time>2016-06-05T07:10:52Z</time>
      </trkpt>
      <trkpt lat="48.18518" lon="-3.01162">
        <ele>87</ele>
        <time>2016-06-05T07:10:53Z</time>
      </trkpt>
      <trkpt lat="48.18507" lon="-3.01152">
        <ele>85</ele>
        <time>2016-06-05T07:11:05Z</time>
      </trkpt>
      <trkpt lat="48.18495" lon="-3.01143">
        <ele>84</ele>
        <time>2016-06-05T07:11:15Z</time>
      </trkpt>
      <trkpt lat="48.18484" lon="-3.01142">
        <ele>82</ele>
        <time>2016-06-05T07:11:26Z</time>
      </trkpt>
      <trkpt lat="48.1846" lon="-3.01131">
        <ele>84</ele>
        <time>2016-06-05T07:11:45Z</time>
      </trkpt>
      <trkpt lat="48.18458" lon="-3.01128">
        <ele>84</ele>
        <time>2016-06-05T07:11:48Z</time>
      </trkpt>
      <trkpt lat="48.18447" lon="-3.01117">
        <ele>85</ele>
        <time>2016-06-05T07:12:00Z</time>
      </trkpt>
      <trkpt lat="48.18435" lon="-3.01106">
        <ele>83</ele>
        <time>2016-06-05T07:12:10Z</time>
      </trkpt>
      <trkpt lat="48.18416" lon="-3.01101">
        <ele>78</ele>
        <time>2016-06-05T07:12:31Z</time>
      </trkpt>
      <trkpt lat="48.18415" lon="-3.011">
        <ele>77</ele>
        <time>2016-06-05T07:12:32Z</time>
      </trkpt>
      <trkpt lat="48.184" lon="-3.01086">
        <ele>81</ele>
        <time>2016-06-05T07:12:48Z</time>
      </trkpt>
      <trkpt lat="48.18392" lon="-3.01079">
        <ele>78</ele>
        <time>2016-06-05T07:12:55Z</time>
      </trkpt>
      <trkpt lat="48.18382" lon="-3.01071">
        <ele>81</ele>
        <time>2016-06-05T07:13:05Z</time>
      </trkpt>
      <trkpt lat="48.18358" lon="-3.01064">
        <ele>81</ele>
        <time>2016-06-05T07:13:24Z</time>
      </trkpt>
      <trkpt lat="48.18347" lon="-3.01062">
        <ele>82</ele>
        <time>2016-06-05T07:13:35Z</time>
      </trkpt>
      <trkpt lat="48.18337" lon="-3.01064">
        <ele>77</ele>
        <time>2016-06-05T07:13:45Z</time>
      </trkpt>
      <trkpt lat="48.18332" lon="-3.01062">
        <ele>76</ele>
        <time>2016-06-05T07:13:49Z</time>
      </trkpt>
      <trkpt lat="48.18318" lon="-3.01061">
        <ele>77</ele>
        <time>2016-06-05T07:14:00Z</time>
      </trkpt>
      <trkpt lat="48.183" lon="-3.01061">
        <ele>79</ele>
        <time>2016-06-05T07:14:18Z</time>
      </trkpt>
      <trkpt lat="48.18296" lon="-3.01063">
        <ele>78</ele>
        <time>2016-06-05T07:14:22Z</time>
      </trkpt>
      <trkpt lat="48.18285" lon="-3.01063">
        <ele>77</ele>
        <time>2016-06-05T07:14:33Z</time>
      </trkpt>
      <trkpt lat="48.18271" lon="-3.01062">
        <ele>76</ele>
        <time>2016-06-05T07:14:44Z</time>
      </trkpt>
      <trkpt lat="48.1826" lon="-3.01061">
        <ele>75</ele>
        <time>2016-06-05T07:14:55Z</time>
      </trkpt>
      <trkpt lat="48.18244" lon="-3.0106">
        <ele>74</ele>
        <time>2016-06-05T07:15:11Z</time>
      </trkpt>
      <trkpt lat="48.18237" lon="-3.01061">
        <ele>73</ele>
        <time>2016-06-05T07:15:19Z</time>
      </trkpt>
      <trkpt lat="48.18221" lon="-3.01059">
        <ele>81</ele>
        <time>2016-06-05T07:15:29Z</time>
      </trkpt>
      <trkpt lat="48.18208" lon="-3.01058">
        <ele>75</ele>
        <time>2016-06-05T07:15:43Z</time>
      </trkpt>
      <trkpt lat="48.18202" lon="-3.01054">
        <ele>80</ele>
        <time>2016-06-05T07:15:56Z</time>
      </trkpt>
      <trkpt lat="48.18191" lon="-3.01055">
        <ele>84</ele>
        <time>2016-06-05T07:16:09Z</time>
      </trkpt>
      <trkpt lat="48.18189" lon="-3.01055">
        <ele>82</ele>
        <time>2016-06-05T07:16:12Z</time>
      </trkpt>
      <trkpt lat="48.18182" lon="-3.01055">
        <ele>78</ele>
        <time>2016-06-05T07:16:23Z</time>
      </trkpt>
      <trkpt lat="48.18171" lon="-3.01061">
        <ele>79</ele>
        <time>2016-06-05T07:16:34Z</time>
      </trkpt>
      <trkpt lat="48.18153" lon="-3.01059">
        <ele>80</ele>
        <time>2016-06-05T07:16:47Z</time>
      </trkpt>
      <trkpt lat="48.18141" lon="-3.01054">
        <ele>83</ele>
        <time>2016-06-05T07:16:56Z</time>
      </trkpt>
      <trkpt lat="48.18117" lon="-3.01046">
        <ele>83</ele>
        <time>2016-06-05T07:17:17Z</time>
      </trkpt>
      <trkpt lat="48.18107" lon="-3.01042">
        <ele>81</ele>
        <time>2016-06-05T07:17:25Z</time>
      </trkpt>
      <trkpt lat="48.18103" lon="-3.0104">
        <ele>80</ele>
        <time>2016-06-05T07:17:29Z</time>
      </trkpt>
      <trkpt lat="48.18091" lon="-3.01037">
        <ele>83</ele>
        <time>2016-06-05T07:17:40Z</time>
      </trkpt>
      <trkpt lat="48.18079" lon="-3.0103">
        <ele>80</ele>
        <time>2016-06-05T07:17:51Z</time>
      </trkpt>
      <trkpt lat="48.18067" lon="-3.01027">
        <ele>80</ele>
        <time>2016-06-05T07:18:02Z</time>
      </trkpt>
      <trkpt lat="48.18053" lon="-3.01023">
        <ele>76</ele>
        <time>2016-06-05T07:18:15Z</time>
      </trkpt>
      <trkpt lat="48.18033" lon="-3.01026">
        <ele>77</ele>
        <time>2016-06-05T07:18:30Z</time>
      </trkpt>
      <trkpt lat="48.18027" lon="-3.01028">
        <ele>75</ele>
        <time>2016-06-05T07:18:35Z</time>
      </trkpt>
      <trkpt lat="48.18011" lon="-3.0103">
        <ele>72</ele>
        <time>2016-06-05T07:18:51Z</time>
      </trkpt>
      <trkpt lat="48.17999" lon="-3.01026">
        <ele>74</ele>
        <time>2016-06-05T07:19:01Z</time>
      </trkpt>
      <trkpt lat="48.1799" lon="-3.01023">
        <ele>74</ele>
        <time>2016-06-05T07:19:08Z</time>
      </trkpt>
      <trkpt lat="48.17977" lon="-3.01022">
        <ele>79</ele>
        <time>2016-06-05T07:19:21Z</time>
      </trkpt>
      <trkpt lat="48.17972" lon="-3.01016">
        <ele>81</ele>
        <time>2016-06-05T07:19:37Z</time>
      </trkpt>
      <trkpt lat="48.17968" lon="-3.01015">
        <ele>80</ele>
        <time>2016-06-05T07:19:41Z</time>
      </trkpt>
      <trkpt lat="48.17954" lon="-3.0101">
        <ele>79</ele>
        <time>2016-06-05T07:19:52Z</time>
      </trkpt>
      <trkpt lat="48.17942" lon="-3.0101">
        <ele>78</ele>
        <time>2016-06-05T07:20:03Z</time>
      </trkpt>
      <trkpt lat="48.1793" lon="-3.01009">
        <ele>75</ele>
        <time>2016-06-05T07:20:14Z</time>
      </trkpt>
      <trkpt lat="48.1792" lon="-3.01007">
        <ele>75</ele>
        <time>2016-06-05T07:20:25Z</time>
      </trkpt>
      <trkpt lat="48.17908" lon="-3.0101">
        <ele>76</ele>
        <time>2016-06-05T07:20:39Z</time>
      </trkpt>
      <trkpt lat="48.17901" lon="-3.01012">
        <ele>76</ele>
        <time>2016-06-05T07:20:49Z</time>
      </trkpt>
      <trkpt lat="48.179" lon="-3.0101">
        <ele>81</ele>
        <time>2016-06-05T07:21:02Z</time>
      </trkpt>
      <trkpt lat="48.17899" lon="-3.01011">
        <ele>81</ele>
        <time>2016-06-05T07:21:09Z</time>
      </trkpt>
      <trkpt lat="48.17899" lon="-3.01011">
        <ele>82</ele>
        <time>2016-06-05T07:21:29Z</time>
      </trkpt>
      <trkpt lat="48.17898" lon="-3.01012">
        <ele>84</ele>
        <time>2016-06-05T07:21:38Z</time>
      </trkpt>
    </trkseg>
  </trk>
</gpx>